createdAt,value
2022-08-07T00:00:43.385Z,50.908371
2022-08-07T00:02:37.222Z,50.908371
2022-08-07T00:02:44.754Z,50.908230
2022-08-07T00:03:47.199Z,50.908119
2022-08-07T00:04:43.425Z,50.908066
2022-08-07T00:05:43.343Z,50.908051
2022-08-07T00:06:51.667Z,50.908218
2022-08-07T00:07:44.326Z,50.908211
2022-08-07T00:08:44.446Z,50.908199
2022-08-07T00:09:50.160Z,50.908131
2022-08-07T00:10:48.350Z,50.908146
2022-08-07T00:11:54.027Z,50.908131
2022-08-07T00:12:59.941Z,50.908184
2022-08-07T00:13:44.867Z,50.908184
2022-08-07T00:14:44.205Z,50.908184
2022-08-07T00:15:46.739Z,50.908184
2022-08-07T00:16:44.252Z,50.908184
2022-08-07T00:17:43.248Z,50.908184
2022-08-07T00:18:43.241Z,50.908184
2022-08-07T00:20:01.058Z,50.908184
2022-08-07T00:20:44.228Z,50.908184
2022-08-07T00:21:55.989Z,50.908306
2022-08-07T00:22:51.789Z,50.908306
2022-08-07T00:23:44.202Z,50.908306
2022-08-07T00:24:43.221Z,50.908306
2022-08-07T00:25:43.199Z,50.908306
2022-08-07T00:26:59.469Z,50.908306
2022-08-07T00:27:52.532Z,50.908306
2022-08-07T00:28:45.863Z,50.908306
2022-08-07T00:29:44.179Z,50.908306
2022-08-07T00:30:43.147Z,50.908306
2022-08-07T00:31:43.157Z,50.908306
2022-08-07T00:32:43.128Z,50.908115
2022-08-07T00:33:43.123Z,50.908112
2022-08-07T00:34:43.138Z,50.908123
2022-08-07T00:35:49.098Z,50.908112
2022-08-07T00:36:45.094Z,50.908127
2022-08-07T00:37:48.324Z,50.908138
2022-08-07T00:38:44.076Z,50.908127
2022-08-07T00:39:44.849Z,50.908134
2022-08-07T00:40:43.065Z,50.908142
2022-08-07T00:41:53.199Z,50.908165
2022-08-07T00:42:44.046Z,50.908169
2022-08-07T00:44:01.817Z,50.908134
2022-08-07T00:44:44.059Z,50.908154
2022-08-07T00:45:43.022Z,50.908123
2022-08-07T00:46:43.013Z,50.908146
2022-08-07T00:48:08.884Z,50.908127
2022-08-07T00:48:43.998Z,50.908119
2022-08-07T00:50:20.696Z,50.908119
2022-08-07T00:50:50.483Z,50.908127
2022-08-07T00:51:58.695Z,50.908119
2022-08-07T00:52:47.531Z,50.908138
2022-08-07T00:53:50.888Z,50.908108
2022-08-07T00:54:44.971Z,50.908100
2022-08-07T00:56:00.390Z,50.908104
2022-08-07T00:56:43.995Z,50.908112
2022-08-07T00:57:55.083Z,50.908134
2022-08-07T00:58:46.616Z,50.908096
2022-08-07T00:59:42.936Z,50.908127
2022-08-07T01:00:53.874Z,50.908142
2022-08-07T01:01:44.482Z,50.908062
2022-08-07T01:02:42.886Z,50.908104
2022-08-07T01:03:55.675Z,50.908077
2022-08-07T01:04:44.038Z,50.908108
2022-08-07T01:05:42.859Z,50.908138
2022-08-07T01:06:43.852Z,50.908131
2022-08-07T01:07:42.843Z,50.908123
2022-08-07T01:08:51.283Z,50.908180
2022-08-07T01:10:04.635Z,50.908112
2022-08-07T01:10:54.239Z,50.908138
2022-08-07T01:12:09.489Z,50.908108
2022-08-07T01:12:53.787Z,50.908104
2022-08-07T01:13:55.567Z,50.908119
2022-08-07T01:14:45.062Z,50.908096
2022-08-07T01:16:05.727Z,50.908150
2022-08-07T01:16:47.349Z,50.908134
2022-08-07T01:17:42.767Z,50.908108
2022-08-07T01:18:42.754Z,50.908096
2022-08-07T01:19:52.403Z,50.908173
2022-08-07T01:20:43.734Z,50.908131
2022-08-07T01:21:43.730Z,50.908108
2022-08-07T01:22:54.065Z,50.908092
2022-08-07T01:23:46.549Z,50.908115
2022-08-07T01:24:43.737Z,50.908119
2022-08-07T01:25:55.296Z,50.908123
2022-08-07T01:26:43.691Z,50.908134
2022-08-07T01:27:50.968Z,50.908123
2022-08-07T01:28:46.158Z,50.908127
2022-08-07T01:29:42.671Z,50.908134
2022-08-07T01:30:42.691Z,50.908134
2022-08-07T01:31:48.106Z,50.908142
2022-08-07T01:32:43.650Z,50.908146
2022-08-07T01:33:53.992Z,50.908154
2022-08-07T01:34:43.632Z,50.908146
2022-08-07T01:35:53.115Z,50.908112
2022-08-07T01:36:44.102Z,50.908077
2022-08-07T01:37:42.618Z,50.908054
2022-08-07T01:38:42.604Z,50.908070
2022-08-07T01:39:46.734Z,50.908073
2022-08-07T01:40:42.616Z,50.908077
2022-08-07T01:42:01.642Z,50.908108
2022-08-07T01:42:57.554Z,50.908073
2022-08-07T01:43:43.577Z,50.908081
2022-08-07T01:44:42.561Z,50.908089
2022-08-07T01:45:43.571Z,50.908127
2022-08-07T01:46:42.548Z,50.908115
2022-08-07T01:48:21.340Z,50.908131
2022-08-07T01:48:46.624Z,50.908119
2022-08-07T01:49:42.520Z,50.908108
2022-08-07T01:50:43.182Z,50.908073
2022-08-07T01:52:03.628Z,50.908058
2022-08-07T01:52:49.723Z,50.908085
2022-08-07T01:54:00.768Z,50.908062
2022-08-07T01:54:43.479Z,50.908001
2022-08-07T01:55:42.498Z,50.908066
2022-08-07T01:56:42.472Z,50.908081
2022-08-07T01:58:06.471Z,50.908104
2022-08-07T01:58:45.322Z,50.908123
2022-08-07T01:59:43.789Z,50.908123
2022-08-07T02:00:49.102Z,50.908104
2022-08-07T02:01:59.970Z,50.908131
2022-08-07T02:03:18.118Z,50.908134
2022-08-07T02:03:50.338Z,50.908165
2022-08-07T02:04:56.209Z,50.908108
2022-08-07T02:05:55.281Z,50.908131
2022-08-07T02:06:43.386Z,50.908104
2022-08-07T02:07:49.976Z,50.908070
2022-08-07T02:08:43.375Z,50.908119
2022-08-07T02:09:54.698Z,50.908104
2022-08-07T02:10:43.389Z,50.908127
2022-08-07T02:12:03.442Z,50.908112
2022-08-07T02:12:43.338Z,50.908039
2022-08-07T02:13:57.567Z,50.908020
2022-08-07T02:14:43.325Z,50.908096
2022-08-07T02:15:42.350Z,50.908081
2022-08-07T02:16:42.310Z,50.908096
2022-08-07T02:17:42.303Z,50.908142
2022-08-07T02:18:46.889Z,50.908112
2022-08-07T02:20:05.817Z,50.908054
2022-08-07T02:20:43.304Z,50.908066
2022-08-07T02:21:55.075Z,50.908104
2022-08-07T02:22:43.809Z,50.908215
2022-08-07T02:23:42.255Z,50.908199
2022-08-07T02:24:44.646Z,50.908203
2022-08-07T02:26:26.759Z,50.908249
2022-08-07T02:26:43.252Z,50.908157
2022-08-07T02:27:42.223Z,50.908115
2022-08-07T02:28:42.215Z,50.908085
2022-08-07T02:29:43.455Z,50.908138
2022-08-07T02:30:43.194Z,50.908134
2022-08-07T02:31:42.214Z,50.908119
2022-08-07T02:33:00.476Z,50.908119
2022-08-07T02:34:01.805Z,50.908134
2022-08-07T02:34:48.903Z,50.908146
2022-08-07T02:36:28.645Z,50.908230
2022-08-07T02:36:43.169Z,50.908157
2022-08-07T02:37:44.105Z,50.908073
2022-08-07T02:38:50.970Z,50.908112
2022-08-07T02:40:02.331Z,50.908173
2022-08-07T02:40:43.150Z,50.908028
2022-08-07T02:41:50.684Z,50.908047
2022-08-07T02:42:43.097Z,50.908100
2022-08-07T02:43:42.093Z,50.908115
2022-08-07T02:44:47.874Z,50.908161
2022-08-07T02:45:58.461Z,50.908131
2022-08-07T02:46:46.616Z,50.908051
2022-08-07T02:47:48.130Z,50.908016
2022-08-07T02:48:54.628Z,50.908077
2022-08-07T02:49:56.339Z,50.908005
2022-08-07T02:50:43.035Z,50.908131
2022-08-07T02:51:52.097Z,50.908127
2022-08-07T02:52:44.182Z,50.908184
2022-08-07T02:53:42.014Z,50.908207
2022-08-07T02:54:42.008Z,50.908184
2022-08-07T02:56:03.198Z,50.908138
2022-08-07T02:56:43.013Z,50.908138
2022-08-07T02:57:41.988Z,50.908222
2022-08-07T02:58:47.370Z,50.908092
2022-08-07T02:59:42.968Z,50.908089
2022-08-07T03:00:47.051Z,50.908161
2022-08-07T03:01:42.023Z,50.908081
2022-08-07T03:02:54.525Z,50.908165
2022-08-07T03:03:50.400Z,50.908234
2022-08-07T03:04:42.933Z,50.908142
2022-08-07T03:05:41.926Z,50.908165
2022-08-07T03:06:42.086Z,50.908154
2022-08-07T03:08:05.122Z,50.908031
2022-08-07T03:08:42.897Z,50.908047
2022-08-07T03:09:44.419Z,50.908070
2022-08-07T03:10:46.588Z,50.908043
2022-08-07T03:11:52.287Z,50.908203
2022-08-07T03:12:42.875Z,50.908051
2022-08-07T03:13:49.885Z,50.907997
2022-08-07T03:14:42.853Z,50.907898
2022-08-07T03:15:47.887Z,50.907925
2022-08-07T03:16:42.866Z,50.907967
2022-08-07T03:17:53.438Z,50.908104
2022-08-07T03:18:44.120Z,50.908073
2022-08-07T03:19:41.818Z,50.908054
2022-08-07T03:20:41.802Z,50.908184
2022-08-07T03:21:50.501Z,50.907974
2022-08-07T03:22:42.786Z,50.908115
2022-08-07T03:24:18.200Z,50.908012
2022-08-07T03:24:42.771Z,50.908062
2022-08-07T03:25:41.840Z,50.907982
2022-08-07T03:26:51.009Z,50.907970
2022-08-07T03:27:42.771Z,50.908005
2022-08-07T03:28:43.151Z,50.908039
2022-08-07T03:29:46.130Z,50.908066
2022-08-07T03:30:42.728Z,50.908062
2022-08-07T03:31:43.611Z,50.908066
2022-08-07T03:32:49.183Z,50.908142
2022-08-07T03:33:42.696Z,50.908127
2022-08-07T03:34:47.472Z,50.908096
2022-08-07T03:35:50.472Z,50.908081
2022-08-07T03:36:42.676Z,50.908043
2022-08-07T03:37:53.257Z,50.908138
2022-08-07T03:38:42.662Z,50.908092
2022-08-07T03:39:59.112Z,50.908131
2022-08-07T03:40:44.542Z,50.908203
2022-08-07T03:41:42.261Z,50.908119
2022-08-07T03:42:42.656Z,50.908138
2022-08-07T03:43:44.034Z,50.908211
2022-08-07T03:44:42.615Z,50.908146
2022-08-07T03:45:43.639Z,50.908096
2022-08-07T03:47:11.522Z,50.908085
2022-08-07T03:47:47.759Z,50.908115
2022-08-07T03:48:45.294Z,50.908195
2022-08-07T03:49:48.056Z,50.908138
2022-08-07T03:50:43.238Z,50.908070
2022-08-07T03:51:47.355Z,50.908104
2022-08-07T03:52:42.572Z,50.908154
2022-08-07T03:54:01.967Z,50.908131
2022-08-07T03:54:54.791Z,50.908207
2022-08-07T03:55:53.088Z,50.908173
2022-08-07T03:56:42.523Z,50.908142
2022-08-07T03:59:05.349Z,50.908154
2022-08-07T03:59:08.599Z,50.908127
2022-08-07T03:59:46.654Z,50.908104
2022-08-07T04:00:42.509Z,50.908134
2022-08-07T04:01:43.319Z,50.908161
2022-08-07T04:02:41.507Z,50.908081
2022-08-07T04:03:49.969Z,50.908150
2022-08-07T04:04:42.441Z,50.908131
2022-08-07T04:05:42.377Z,50.908134
2022-08-07T04:06:41.431Z,50.908112
2022-08-07T04:07:42.530Z,50.908154
2022-08-07T04:08:41.416Z,50.908104
2022-08-07T04:09:44.867Z,50.908150
2022-08-07T04:10:42.602Z,50.908154
2022-08-07T04:12:15.529Z,50.908150
2022-08-07T04:12:42.404Z,50.908134
2022-08-07T04:14:32.987Z,50.908127
2022-08-07T04:14:43.839Z,50.908115
2022-08-07T04:15:42.358Z,50.908085
2022-08-07T04:16:43.080Z,50.908104
2022-08-07T04:18:57.183Z,50.908131
2022-08-07T04:18:59.727Z,50.908161
2022-08-07T04:19:52.114Z,50.908150
2022-08-07T04:20:54.321Z,50.908195
2022-08-07T04:21:59.701Z,50.908157
2022-08-07T04:22:53.083Z,50.908146
2022-08-07T04:23:43.612Z,50.908157
2022-08-07T04:24:42.288Z,50.908131
2022-08-07T04:25:41.286Z,50.908154
2022-08-07T04:26:43.712Z,50.908184
2022-08-07T04:27:44.327Z,50.908195
2022-08-07T04:28:42.274Z,50.908085
2022-08-07T04:29:48.956Z,50.908062
2022-08-07T04:30:55.308Z,50.908127
2022-08-07T04:32:03.440Z,50.908089
2022-08-07T04:32:44.687Z,50.908073
2022-08-07T04:33:42.224Z,50.908085
2022-08-07T04:34:41.217Z,50.908089
2022-08-07T04:35:41.205Z,50.908081
2022-08-07T04:36:41.202Z,50.908058
2022-08-07T04:38:03.293Z,50.907967
2022-08-07T04:38:42.182Z,50.908081
2022-08-07T04:39:41.199Z,50.908146
2022-08-07T04:40:51.246Z,50.908092
2022-08-07T04:41:42.169Z,50.908081
2022-08-07T04:42:42.179Z,50.908062
2022-08-07T04:44:12.334Z,50.908073
2022-08-07T04:44:54.769Z,50.908134
2022-08-07T04:45:57.859Z,50.908146
2022-08-07T04:46:59.547Z,50.907963
2022-08-07T04:48:00.896Z,50.908127
2022-08-07T04:48:44.621Z,50.908131
2022-08-07T04:49:41.096Z,50.908119
2022-08-07T04:50:41.094Z,50.908123
2022-08-07T04:51:41.075Z,50.908089
2022-08-07T04:52:51.020Z,50.908123
2022-08-07T04:54:05.425Z,50.908138
2022-08-07T04:54:42.062Z,50.908134
2022-08-07T04:58:12.864Z,50.908089
2022-08-07T04:58:23.951Z,50.908123
2022-08-07T04:58:31.447Z,50.908131
2022-08-07T04:59:18.581Z,50.908104
2022-08-07T05:00:12.531Z,50.908123
2022-08-07T05:00:42.060Z,50.908123
2022-08-07T05:01:41.065Z,50.908123
2022-08-07T05:02:43.385Z,50.908138
2022-08-07T05:04:06.585Z,50.908150
2022-08-07T05:04:47.273Z,50.908169
2022-08-07T05:05:53.554Z,50.908131
2022-08-07T05:06:43.315Z,50.908142
2022-08-07T05:07:48.099Z,50.908134
2022-08-07T05:08:59.147Z,50.908142
2022-08-07T05:09:45.429Z,50.908112
2022-08-07T05:10:40.938Z,50.908112
2022-08-07T05:11:58.884Z,50.908108
2022-08-07T05:12:51.364Z,50.908123
2022-08-07T05:14:52.901Z,50.908138
2022-08-07T05:14:56.079Z,50.908119
2022-08-07T05:15:41.898Z,50.908092
2022-08-07T05:16:43.895Z,50.908077
2022-08-07T05:17:53.025Z,50.908115
2022-08-07T05:18:41.872Z,50.908115
2022-08-07T05:19:44.941Z,50.908131
2022-08-07T05:20:40.867Z,50.908272
2022-08-07T05:22:00.046Z,50.908169
2022-08-07T05:22:41.874Z,50.908146
2022-08-07T05:23:40.837Z,50.908112
2022-08-07T05:24:40.953Z,50.908119
2022-08-07T05:26:13.091Z,50.908127
2022-08-07T05:26:41.815Z,50.908131
2022-08-07T05:28:02.493Z,50.908104
2022-08-07T05:28:41.806Z,50.908138
2022-08-07T05:29:50.985Z,50.908150
2022-08-07T05:30:42.793Z,50.908146
2022-08-07T05:31:40.797Z,50.908131
2022-08-07T05:32:41.799Z,50.908108
2022-08-07T05:33:40.769Z,50.908123
2022-08-07T05:34:41.852Z,50.908115
2022-08-07T05:35:41.801Z,50.908115
2022-08-07T05:36:40.745Z,50.908154
2022-08-07T05:37:42.367Z,50.908123
2022-08-07T05:38:58.373Z,50.908165
2022-08-07T05:40:05.864Z,50.908161
2022-08-07T05:40:50.559Z,50.908108
2022-08-07T05:42:02.533Z,50.908131
2022-08-07T05:42:43.048Z,50.908176
2022-08-07T05:43:49.718Z,50.908169
2022-08-07T05:44:46.615Z,50.908138
2022-08-07T05:45:47.435Z,50.908131
2022-08-07T05:46:42.909Z,50.908131
2022-08-07T05:48:01.525Z,50.908165
2022-08-07T05:48:59.194Z,50.908119
2022-08-07T05:49:41.663Z,50.908146
2022-08-07T05:50:42.922Z,50.908104
2022-08-07T05:51:40.808Z,50.908123
2022-08-07T05:52:40.644Z,50.908146
2022-08-07T05:54:12.381Z,50.908127
2022-08-07T05:54:53.210Z,50.908142
2022-08-07T05:56:01.835Z,50.908127
2022-08-07T05:56:41.620Z,50.908131
2022-08-07T05:57:42.404Z,50.908119
2022-08-07T05:58:40.626Z,50.908108
2022-08-07T05:59:57.215Z,50.908104
2022-08-07T06:00:41.584Z,50.908100
2022-08-07T06:01:40.633Z,50.908215
2022-08-07T06:02:40.580Z,50.908154
2022-08-07T06:03:53.950Z,50.908192
2022-08-07T06:04:41.565Z,50.908104
2022-08-07T06:05:40.760Z,50.908096
2022-08-07T06:06:46.035Z,50.908054
2022-08-07T06:08:13.716Z,50.908112
2022-08-07T06:08:44.367Z,50.908108
2022-08-07T06:10:04.259Z,50.908150
2022-08-07T06:10:42.516Z,50.908081
2022-08-07T06:11:40.517Z,50.908077
2022-08-07T06:12:40.511Z,50.908077
2022-08-07T06:14:12.211Z,50.908108
2022-08-07T06:14:41.497Z,50.908108
2022-08-07T06:15:42.726Z,50.908108
2022-08-07T06:16:40.485Z,50.908131
2022-08-07T06:17:41.339Z,50.908131
2022-08-07T06:18:42.947Z,50.908150
2022-08-07T06:19:49.927Z,50.908157
2022-08-07T06:20:50.404Z,50.908154
2022-08-07T06:22:14.587Z,50.908154
2022-08-07T06:22:41.441Z,50.908134
2022-08-07T06:24:37.268Z,50.908108
2022-08-07T06:24:53.235Z,50.908123
2022-08-07T06:25:41.421Z,50.908138
2022-08-07T06:26:41.416Z,50.908127
2022-08-07T06:28:00.098Z,50.908123
2022-08-07T06:28:41.432Z,50.908134
2022-08-07T06:29:40.395Z,50.908131
2022-08-07T06:30:45.416Z,50.908108
2022-08-07T06:31:50.457Z,50.908161
2022-08-07T06:32:41.375Z,50.908127
2022-08-07T06:33:40.374Z,50.908161
2022-08-07T06:34:40.641Z,50.908157
2022-08-07T06:35:47.504Z,50.908157
2022-08-07T06:36:41.349Z,50.908104
2022-08-07T06:37:44.435Z,50.908131
2022-08-07T06:38:58.496Z,50.908134
2022-08-07T06:40:13.703Z,50.908108
2022-08-07T06:40:45.744Z,50.908108
2022-08-07T06:42:01.753Z,50.908146
2022-08-07T06:42:41.307Z,50.908157
2022-08-07T06:43:46.195Z,50.908146
2022-08-07T06:44:41.330Z,50.908150
2022-08-07T06:45:40.298Z,50.908138
2022-08-07T06:46:40.293Z,50.908150
2022-08-07T06:47:48.017Z,50.908089
2022-08-07T06:48:41.844Z,50.908131
2022-08-07T06:49:51.228Z,50.908150
2022-08-07T06:50:43.303Z,50.908131
2022-08-07T06:51:49.348Z,50.908142
2022-08-07T06:52:41.253Z,50.908123
2022-08-07T06:55:27.948Z,50.908092
2022-08-07T06:55:31.199Z,50.908092
2022-08-07T06:55:48.068Z,50.907986
2022-08-07T06:56:49.721Z,50.908085
2022-08-07T06:57:48.320Z,50.908100
2022-08-07T06:58:41.221Z,50.908100
2022-08-07T07:00:12.929Z,50.908051
2022-08-07T07:00:42.317Z,50.908028
2022-08-07T07:01:44.085Z,50.908077
2022-08-07T07:02:54.591Z,50.908100
2022-08-07T07:03:48.072Z,50.908100
2022-08-07T07:04:43.571Z,50.908016
2022-08-07T07:06:03.343Z,50.908058
2022-08-07T07:07:00.447Z,50.908123
2022-08-07T07:08:00.215Z,50.908123
2022-08-07T07:08:46.753Z,50.908081
2022-08-07T07:09:41.181Z,50.908066
2022-08-07T07:10:47.541Z,50.908077
2022-08-07T07:12:09.095Z,50.908108
2022-08-07T07:12:41.744Z,50.908138
2022-08-07T07:13:57.966Z,50.908081
2022-08-07T07:14:41.178Z,50.908054
2022-08-07T07:15:40.122Z,50.908123
2022-08-07T07:16:49.653Z,50.908157
2022-08-07T07:17:45.383Z,50.908157
2022-08-07T07:18:48.110Z,50.908184
2022-08-07T07:19:56.078Z,50.908169
2022-08-07T07:20:41.089Z,50.908188
2022-08-07T07:22:05.454Z,50.908176
2022-08-07T07:24:08.870Z,50.908161
2022-08-07T07:24:10.028Z,50.908188
2022-08-07T07:24:42.936Z,50.908173
2022-08-07T07:26:32.056Z,50.908180
2022-08-07T07:26:41.058Z,50.908207
2022-08-07T07:27:56.042Z,50.908188
2022-08-07T07:28:48.333Z,50.908169
2022-08-07T07:30:08.606Z,50.908192
2022-08-07T07:30:42.044Z,50.908173
2022-08-07T07:31:44.455Z,50.908161
2022-08-07T07:32:40.012Z,50.908161
2022-08-07T07:33:40.006Z,50.908173
2022-08-07T07:34:40.022Z,50.908173
2022-08-07T07:35:50.691Z,50.908146
2022-08-07T07:36:40.990Z,50.908165
2022-08-07T07:37:49.701Z,50.908142
2022-08-07T07:38:40.974Z,50.908134
2022-08-07T07:39:52.314Z,50.908176
2022-08-07T07:40:40.965Z,50.908173
2022-08-07T07:42:02.002Z,50.908176
2022-08-07T07:42:40.948Z,50.908157
2022-08-07T07:44:13.608Z,50.908154
2022-08-07T07:44:40.965Z,50.908176
2022-08-07T07:46:37.413Z,50.908165
2022-08-07T07:46:55.231Z,50.908173
2022-08-07T07:47:51.663Z,50.908173
2022-08-07T07:48:40.916Z,50.908188
2022-08-07T07:50:33.946Z,50.908161
2022-08-07T07:50:40.900Z,50.908165
2022-08-07T07:51:58.199Z,50.908161
2022-08-07T07:52:40.888Z,50.908161
2022-08-07T07:53:51.437Z,50.908195
2022-08-07T07:54:44.117Z,50.908173
2022-08-07T07:55:45.775Z,50.908176
2022-08-07T07:56:40.864Z,50.908199
2022-08-07T07:57:52.459Z,50.908195
2022-08-07T07:58:41.119Z,50.908180
2022-08-07T07:59:52.062Z,50.908176
2022-08-07T08:00:40.837Z,50.908188
2022-08-07T08:02:01.929Z,50.908146
2022-08-07T08:02:40.825Z,50.908188
2022-08-07T08:04:06.343Z,50.908184
2022-08-07T08:04:40.871Z,50.908192
2022-08-07T08:05:51.134Z,50.908142
2022-08-07T08:06:40.797Z,50.908184
2022-08-07T08:07:42.143Z,50.908184
2022-08-07T08:08:41.965Z,50.908169
2022-08-07T08:09:52.369Z,50.908157
2022-08-07T08:10:40.783Z,50.908146
2022-08-07T08:11:59.230Z,50.908127
2022-08-07T08:12:59.091Z,50.908138
2022-08-07T08:13:53.352Z,50.908157
2022-08-07T08:14:40.770Z,50.908138
2022-08-07T08:16:40.735Z,50.908146
2022-08-07T08:18:17.504Z,50.908150
2022-08-07T08:18:36.321Z,50.908184
2022-08-07T08:18:40.720Z,50.908127
2022-08-07T08:20:17.708Z,50.908085
2022-08-07T08:20:40.704Z,50.908131
2022-08-07T08:22:00.679Z,50.908138
2022-08-07T08:22:54.320Z,50.908112
2022-08-07T08:23:40.686Z,50.908108
2022-08-07T08:24:44.900Z,50.908176
2022-08-07T08:25:42.491Z,50.908211
2022-08-07T08:26:40.665Z,50.908207
2022-08-07T08:27:39.662Z,50.908066
2022-08-07T08:28:44.948Z,50.908054
2022-08-07T08:29:54.282Z,50.908070
2022-08-07T08:30:51.140Z,50.908115
2022-08-07T08:32:18.133Z,50.908161
2022-08-07T08:32:41.329Z,50.908222
2022-08-07T08:33:39.625Z,50.908230
2022-08-07T08:34:40.639Z,50.908184
2022-08-07T08:35:47.245Z,50.908192
2022-08-07T08:36:40.601Z,50.908180
2022-08-07T08:38:01.039Z,50.908211
2022-08-07T08:38:41.300Z,50.908199
2022-08-07T08:39:58.155Z,50.908173
2022-08-07T08:40:40.582Z,50.908173
2022-08-07T08:41:58.314Z,50.908119
2022-08-07T08:42:40.561Z,50.908146
2022-08-07T08:43:42.195Z,50.908215
2022-08-07T08:44:44.687Z,50.908146
2022-08-07T08:45:59.059Z,50.908142
2022-08-07T08:46:40.536Z,50.908173
2022-08-07T08:47:47.365Z,50.908165
2022-08-07T08:48:40.519Z,50.908161
2022-08-07T08:49:46.892Z,50.908150
2022-08-07T08:50:40.506Z,50.908138
2022-08-07T08:51:49.726Z,50.908146
2022-08-07T08:52:40.749Z,50.908142
2022-08-07T08:53:40.487Z,50.908142
2022-08-07T08:54:39.479Z,50.908157
2022-08-07T08:55:54.993Z,50.908157
2022-08-07T08:56:43.580Z,50.908146
2022-08-07T08:57:40.485Z,50.908134
2022-08-07T08:58:39.454Z,50.908150
2022-08-07T08:59:42.345Z,50.908134
2022-08-07T09:00:42.470Z,50.908154
2022-08-07T09:01:43.740Z,50.908127
2022-08-07T09:02:40.599Z,50.908142
2022-08-07T09:03:48.074Z,50.908184
2022-08-07T09:04:40.435Z,50.908173
2022-08-07T09:05:39.406Z,50.908131
2022-08-07T09:06:40.245Z,50.908146
2022-08-07T09:07:46.400Z,50.908085
2022-08-07T09:08:40.383Z,50.908154
2022-08-07T09:09:39.401Z,50.908142
2022-08-07T09:10:44.270Z,50.908146
2022-08-07T09:11:51.188Z,50.908173
2022-08-07T09:12:40.353Z,50.908157
2022-08-07T09:13:39.351Z,50.908165
2022-08-07T09:14:39.363Z,50.908154
2022-08-07T09:16:21.523Z,50.908134
2022-08-07T09:16:40.324Z,50.908157
2022-08-07T09:17:59.273Z,50.908112
2022-08-07T09:18:40.312Z,50.908138
2022-08-07T09:19:53.118Z,50.908138
2022-08-07T09:20:40.295Z,50.908138
2022-08-07T09:21:58.141Z,50.908115
2022-08-07T09:24:32.440Z,50.908100
2022-08-07T09:24:33.477Z,50.908142
2022-08-07T09:24:58.594Z,50.908142
2022-08-07T09:25:40.257Z,50.908131
2022-08-07T09:26:39.253Z,50.908119
2022-08-07T09:28:00.644Z,50.908161
2022-08-07T09:30:01.099Z,50.908154
2022-08-07T09:30:06.239Z,50.908119
2022-08-07T09:30:40.341Z,50.908138
2022-08-07T09:31:40.216Z,50.908123
2022-08-07T09:32:40.216Z,50.908134
2022-08-07T09:33:52.714Z,50.908134
2022-08-07T09:34:40.218Z,50.908089
2022-08-07T09:36:03.238Z,50.908100
2022-08-07T09:36:43.092Z,50.908131
2022-08-07T09:37:54.098Z,50.908123
2022-08-07T09:38:40.168Z,50.908123
2022-08-07T09:39:53.867Z,50.908115
2022-08-07T09:40:40.160Z,50.908112
2022-08-07T09:41:43.125Z,50.908096
2022-08-07T09:42:40.139Z,50.908112
2022-08-07T09:44:03.580Z,50.908127
2022-08-07T09:47:25.529Z,50.908112
2022-08-07T09:47:25.742Z,50.908077
2022-08-07T09:47:52.329Z,50.908092
2022-08-07T09:47:58.992Z,50.908066
2022-08-07T09:48:56.080Z,50.908096
2022-08-07T09:50:03.007Z,50.908108
2022-08-07T09:50:40.097Z,50.908100
2022-08-07T09:52:15.196Z,50.908100
2022-08-07T09:52:40.085Z,50.908104
2022-08-07T09:53:41.226Z,50.908119
2022-08-07T09:54:40.091Z,50.908184
2022-08-07T09:56:03.933Z,50.908188
2022-08-07T09:56:41.864Z,50.908131
2022-08-07T09:57:46.745Z,50.908115
2022-08-07T09:58:41.541Z,50.908115
2022-08-07T09:59:46.323Z,50.908096
2022-08-07T10:00:40.006Z,50.908108
2022-08-07T10:01:51.018Z,50.908138
2022-08-07T10:02:39.987Z,50.908081
2022-08-07T10:04:05.724Z,50.908104
2022-08-07T10:04:47.739Z,50.908104
2022-08-07T10:06:00.636Z,50.908073
2022-08-07T10:06:39.964Z,50.908085
2022-08-07T10:07:53.119Z,50.908070
2022-08-07T10:08:39.945Z,50.908077
2022-08-07T10:09:59.384Z,50.908100
2022-08-07T10:11:59.494Z,50.908112
2022-08-07T10:12:01.296Z,50.908096
2022-08-07T10:12:39.971Z,50.908100
2022-08-07T10:14:01.378Z,50.908108
2022-08-07T10:14:39.920Z,50.908123
2022-08-07T10:15:44.343Z,50.908115
2022-08-07T10:16:39.887Z,50.908115
2022-08-07T10:18:00.940Z,50.908119
2022-08-07T10:18:39.863Z,50.908127
2022-08-07T10:19:38.881Z,50.908108
2022-08-07T10:20:38.846Z,50.908134
2022-08-07T10:22:14.559Z,50.908104
2022-08-07T10:22:43.186Z,50.908096
2022-08-07T10:24:05.156Z,50.908104
2022-08-07T10:24:39.953Z,50.908115
2022-08-07T10:25:42.786Z,50.908092
2022-08-07T10:26:38.806Z,50.908134
2022-08-07T10:27:46.305Z,50.908142
2022-08-07T10:28:39.792Z,50.908123
2022-08-07T10:29:45.492Z,50.908150
2022-08-07T10:30:40.775Z,50.908112
2022-08-07T10:31:39.292Z,50.908157
2022-08-07T10:32:52.956Z,50.908112
2022-08-07T10:34:14.116Z,50.908073
2022-08-07T10:34:39.786Z,50.908066
2022-08-07T10:35:53.493Z,50.908127
2022-08-07T10:36:39.733Z,50.908142
2022-08-07T10:37:48.381Z,50.908157
2022-08-07T10:38:48.490Z,50.908146
2022-08-07T10:39:42.094Z,50.908115
2022-08-07T10:40:39.693Z,50.908092
2022-08-07T10:41:51.537Z,50.908089
2022-08-07T10:42:39.680Z,50.908092
2022-08-07T10:43:38.673Z,50.908081
2022-08-07T10:44:39.170Z,50.908131
2022-08-07T10:45:57.713Z,50.908131
2022-08-07T10:46:39.647Z,50.908138
2022-08-07T10:47:52.854Z,50.908104
2022-08-07T10:48:39.629Z,50.907967
2022-08-07T10:49:49.622Z,50.908100
2022-08-07T10:50:39.636Z,50.908173
2022-08-07T10:52:01.728Z,50.908127
2022-08-07T10:52:40.186Z,50.908077
2022-08-07T10:53:44.147Z,50.908066
2022-08-07T10:54:39.613Z,50.908108
2022-08-07T10:55:38.990Z,50.908070
2022-08-07T10:56:38.567Z,50.908081
2022-08-07T10:57:38.761Z,50.908146
2022-08-07T10:58:40.569Z,50.908131
2022-08-07T10:59:38.545Z,50.908115
2022-08-07T11:00:43.335Z,50.908104
2022-08-07T11:01:52.027Z,50.908089
2022-08-07T11:02:40.077Z,50.908012
2022-08-07T11:03:54.932Z,50.908085
2022-08-07T11:04:39.566Z,50.908119
2022-08-07T11:05:49.245Z,50.908073
2022-08-07T11:06:39.485Z,50.908096
2022-08-07T11:07:59.150Z,50.908112
2022-08-07T11:08:39.472Z,50.908085
2022-08-07T11:10:07.390Z,50.908119
2022-08-07T11:10:39.485Z,50.908085
2022-08-07T11:11:38.456Z,50.908077
2022-08-07T11:12:38.443Z,50.908077
2022-08-07T11:14:42.102Z,50.908001
2022-08-07T11:14:46.298Z,50.908127
2022-08-07T11:15:39.436Z,50.908058
2022-08-07T11:16:38.415Z,50.908077
2022-08-07T11:17:43.201Z,50.908051
2022-08-07T11:18:39.405Z,50.908077
2022-08-07T11:19:38.415Z,50.908085
2022-08-07T11:20:38.409Z,50.908066
2022-08-07T11:21:40.902Z,50.908031
2022-08-07T11:22:45.781Z,50.908112
2022-08-07T11:23:40.363Z,50.908173
2022-08-07T11:24:38.355Z,50.908058